sensor_id;sensor_type;location;lat;lon;timestamp;pressure;altitude;pressure_sealevel;temperature;humidity
48553;BME280;34335;51.566;6.994;2023-04-15T00:01:58;100213.53;;;7.41;100.00
48553;BME280;34335;51.566;6.994;2023-04-15T00:04:24;100207.50;;;7.39;100.00
48553;BME280;34335;51.566;6.994;2023-04-15T00:06:53;100207.50;;;7.45;100.00
48553;BME280;34335;51.566;6.994;2023-04-15T00:09:19;100214.34;;;7.31;100.00
48553;BME280;34335;51.566;6.994;2023-04-15T00:11:45;100211.75;;;7.31;100.00
48553;BME280;34335;51.566;6.994;2023-04-15T00:14:11;100218.59;;;7.15;100.00
48553;BME280;34335;51.566;6.994;2023-04-15T00:16:36;100210.78;;;7.12;100.00
48553;BME280;34335;51.566;6.994;2023-04-15T00:19:02;100216.81;;;7.09;100.00
48553;BME280;34335;51.566;6.994;2023-04-15T00:21:27;100215.09;;;7.08;100.00
48553;BME280;34335;51.566;6.994;2023-04-15T00:23:53;100212.50;;;7.08;100.00
48553;BME280;34335;51.566;6.994;2023-04-15T00:26:18;100218.53;;;7.07;100.00
48553;BME280;34335;51.566;6.994;2023-04-15T00:28:45;100218.50;;;7.01;100.00
48553;BME280;34335;51.566;6.994;2023-04-15T00:31:10;100212.44;;;6.97;100.00
48553;BME280;34335;51.566;6.994;2023-04-15T00:33:35;100215.03;;;6.96;100.00
48553;BME280;34335;51.566;6.994;2023-04-15T00:36:01;100215.91;;;6.96;100.00
48553;BME280;34335;51.566;6.994;2023-04-15T00:38:27;100213.28;;;6.92;100.00
48553;BME280;34335;51.566;6.994;2023-04-15T00:40:53;100215.00;;;6.93;100.00
48553;BME280;34335;51.566;6.994;2023-04-15T00:43:19;100212.44;;;6.93;100.00
48553;BME280;34335;51.566;6.994;2023-04-15T00:45:44;100213.25;;;6.85;100.00
48553;BME280;34335;51.566;6.994;2023-04-15T00:48:11;100214.03;;;6.77;100.00
48553;BME280;34335;51.566;6.994;2023-04-15T00:50:36;100212.34;;;6.79;100.00
48553;BME280;34335;51.566;6.994;2023-04-15T00:53:02;100213.22;;;6.84;100.00
48553;BME280;34335;51.566;6.994;2023-04-15T00:55:27;100215.78;;;6.78;100.00
48553;BME280;34335;51.566;6.994;2023-04-15T00:57:53;100216.56;;;6.66;100.00
48553;BME280;34335;51.566;6.994;2023-04-15T01:00:19;100209.78;;;6.83;100.00
48553;BME280;34335;51.566;6.994;2023-04-15T01:02:45;100208.84;;;6.72;100.00
48553;BME280;34335;51.566;6.994;2023-04-15T01:05:10;100209.69;;;6.68;100.00
48553;BME280;34335;51.566;6.994;2023-04-15T01:07:35;100203.69;;;6.74;100.00
48553;BME280;34335;51.566;6.994;2023-04-15T01:10:03;100201.94;;;6.69;100.00
48553;BME280;34335;51.566;6.994;2023-04-15T01:12:28;100210.47;;;6.58;100.00
48553;BME280;34335;51.566;6.994;2023-04-15T01:14:56;100209.59;;;6.57;100.00
48553;BME280;34335;51.566;6.994;2023-04-15T01:17:22;100215.53;;;6.45;100.00
48553;BME280;34335;51.566;6.994;2023-04-15T01:19:48;100213.81;;;6.44;100.00
48553;BME280;34335;51.566;6.994;2023-04-15T01:22:14;100213.72;;;6.35;100.00
48553;BME280;34335;51.566;6.994;2023-04-15T01:24:40;100209.53;;;6.46;100.00
48553;BME280;34335;51.566;6.994;2023-04-15T01:27:05;100213.72;;;6.33;100.00
48553;BME280;34335;51.566;6.994;2023-04-15T01:29:31;100213.66;;;6.24;100.00
48553;BME280;34335;51.566;6.994;2023-04-15T01:31:57;100210.94;;;6.10;100.00
48553;BME280;34335;51.566;6.994;2023-04-15T01:34:22;100216.91;;;6.06;100.00
48553;BME280;34335;51.566;6.994;2023-04-15T01:36:48;100214.44;;;6.17;100.00
48553;BME280;34335;51.566;6.994;2023-04-15T01:39:13;100217.84;;;6.13;100.00
48553;BME280;34335;51.566;6.994;2023-04-15T01:41:39;100223.81;;;6.08;100.00
48553;BME280;34335;51.566;6.994;2023-04-15T01:44:05;100223.81;;;6.05;100.00
48553;BME280;34335;51.566;6.994;2023-04-15T01:46:31;100226.44;;;6.10;100.00
48553;BME280;34335;51.566;6.994;2023-04-15T01:48:56;100223.69;;;5.96;100.00
48553;BME280;34335;51.566;6.994;2023-04-15T01:51:22;100224.63;;;6.00;100.00
48553;BME280;34335;51.566;6.994;2023-04-15T01:53:47;100217.59;;;5.91;100.00
48553;BME280;34335;51.566;6.994;2023-04-15T01:56:12;100217.50;;;5.83;100.00
48553;BME280;34335;51.566;6.994;2023-04-15T01:58:38;100217.66;;;5.97;100.00
48553;BME280;34335;51.566;6.994;2023-04-15T02:01:04;100213.31;;;5.93;100.00
48553;BME280;34335;51.566;6.994;2023-04-15T02:03:30;100208.94;;;5.86;100.00
48553;BME280;34335;51.566;6.994;2023-04-15T02:05:55;100211.50;;;5.83;100.00
48553;BME280;34335;51.566;6.994;2023-04-15T02:08:20;100216.69;;;5.87;100.00
48553;BME280;34335;51.566;6.994;2023-04-15T02:10:46;100219.19;;;5.78;100.00
48553;BME280;34335;51.566;6.994;2023-04-15T02:13:12;100216.66;;;5.84;100.00
48553;BME280;34335;51.566;6.994;2023-04-15T02:15:38;100214.03;;;5.76;100.00
48553;BME280;34335;51.566;6.994;2023-04-15T02:18:03;100225.97;;;5.70;100.00
48553;BME280;34335;51.566;6.994;2023-04-15T02:20:29;100231.94;;;5.66;100.00
48553;BME280;34335;51.566;6.994;2023-04-15T02:22:57;100233.63;;;5.60;100.00
48553;BME280;34335;51.566;6.994;2023-04-15T02:25:22;100220.88;;;5.76;100.00
48553;BME280;34335;51.566;6.994;2023-04-15T02:27:47;100221.75;;;5.78;100.00
48553;BME280;34335;51.566;6.994;2023-04-15T02:30:13;100229.25;;;5.56;100.00
48553;BME280;34335;51.566;6.994;2023-04-15T02:32:39;100228.41;;;5.56;100.00
48553;BME280;34335;51.566;6.994;2023-04-15T02:35:06;100230.09;;;5.52;100.00
48553;BME280;34335;51.566;6.994;2023-04-15T02:37:32;100236.09;;;5.51;100.00
48553;BME280;34335;51.566;6.994;2023-04-15T02:40:01;100236.88;;;5.49;100.00
48553;BME280;34335;51.566;6.994;2023-04-15T02:42:26;100242.03;;;5.47;100.00
48553;BME280;34335;51.566;6.994;2023-04-15T02:44:54;100247.97;;;5.41;100.00
48553;BME280;34335;51.566;6.994;2023-04-15T02:47:20;100250.56;;;5.41;100.00
48553;BME280;34335;51.566;6.994;2023-04-15T02:49:45;100253.28;;;5.52;100.00
48553;BME280;34335;51.566;6.994;2023-04-15T02:52:10;100248.81;;;5.40;100.00
48553;BME280;34335;51.566;6.994;2023-04-15T02:54:35;100257.41;;;5.38;100.00
48553;BME280;34335;51.566;6.994;2023-04-15T02:57:01;100255.72;;;5.40;100.00
48553;BME280;34335;51.566;6.994;2023-04-15T02:59:26;100252.19;;;5.35;100.00
48553;BME280;34335;51.566;6.994;2023-04-15T03:01:51;100255.69;;;5.38;100.00
48553;BME280;34335;51.566;6.994;2023-04-15T03:04:17;100262.56;;;5.38;100.00
48553;BME280;34335;51.566;6.994;2023-04-15T03:06:42;100253.06;;;5.35;100.00
48553;BME280;34335;51.566;6.994;2023-04-15T03:09:08;100259.91;;;5.32;100.00
48553;BME280;34335;51.566;6.994;2023-04-15T03:11:34;100258.13;;;5.27;100.00
48553;BME280;34335;51.566;6.994;2023-04-15T03:14:00;100258.84;;;5.17;100.00
48553;BME280;34335;51.566;6.994;2023-04-15T03:16:26;100260.50;;;5.12;100.00
48553;BME280;34335;51.566;6.994;2023-04-15T03:18:51;100262.13;;;5.07;100.00
48553;BME280;34335;51.566;6.994;2023-04-15T03:21:16;100261.34;;;5.11;100.00
48553;BME280;34335;51.566;6.994;2023-04-15T03:23:43;100265.59;;;5.07;100.00
48553;BME280;34335;51.566;6.994;2023-04-15T03:26:08;100272.47;;;5.08;100.00
48553;BME280;34335;51.566;6.994;2023-04-15T03:28:33;100266.53;;;5.14;100.00
48553;BME280;34335;51.566;6.994;2023-04-15T03:30:59;100270.69;;;5.06;100.00
48553;BME280;34335;51.566;6.994;2023-04-15T03:33:24;100268.03;;;4.99;100.00
48553;BME280;34335;51.566;6.994;2023-04-15T03:35:50;100269.78;;;5.02;100.00
48553;BME280;34335;51.566;6.994;2023-04-15T03:38:16;100278.34;;;4.99;100.00
48553;BME280;34335;51.566;6.994;2023-04-15T03:40:41;100278.28;;;4.93;100.00
48553;BME280;34335;51.566;6.994;2023-04-15T03:43:07;100278.28;;;4.96;100.00
48553;BME280;34335;51.566;6.994;2023-04-15T03:45:32;100286.03;;;4.96;100.00
48553;BME280;34335;51.566;6.994;2023-04-15T03:47:57;100286.00;;;4.95;100.00
48553;BME280;34335;51.566;6.994;2023-04-15T03:50:23;100291.19;;;4.96;100.00
48553;BME280;34335;51.566;6.994;2023-04-15T03:52:48;100296.31;;;4.95;100.00
48553;BME280;34335;51.566;6.994;2023-04-15T03:55:13;100293.69;;;4.92;100.00
48553;BME280;34335;51.566;6.994;2023-04-15T03:57:39;100291.03;;;4.86;100.00
48553;BME280;34335;51.566;6.994;2023-04-15T04:00:05;100291.09;;;4.89;100.00
48553;BME280;34335;51.566;6.994;2023-04-15T04:02:30;100291.88;;;4.84;100.00
48553;BME280;34335;51.566;6.994;2023-04-15T04:04:56;100296.19;;;4.86;100.00
48553;BME280;34335;51.566;6.994;2023-04-15T04:07:22;100294.44;;;4.83;100.00
48553;BME280;34335;51.566;6.994;2023-04-15T04:09:48;100297.03;;;4.86;100.00
48553;BME280;34335;51.566;6.994;2023-04-15T04:12:13;100294.44;;;4.83;100.00
48553;BME280;34335;51.566;6.994;2023-04-15T04:14:38;100297.84;;;4.82;100.00
48553;BME280;34335;51.566;6.994;2023-04-15T04:17:04;100303.84;;;4.81;100.00
48553;BME280;34335;51.566;6.994;2023-04-15T04:19:29;100294.38;;;4.81;100.00
48553;BME280;34335;51.566;6.994;2023-04-15T04:21:55;100300.34;;;4.79;100.00
48553;BME280;34335;51.566;6.994;2023-04-15T04:24:20;100308.06;;;4.77;100.00
48553;BME280;34335;51.566;6.994;2023-04-15T04:26:45;100311.50;;;4.78;100.00
48553;BME280;34335;51.566;6.994;2023-04-15T04:29:11;100301.19;;;4.76;100.00
48553;BME280;34335;51.566;6.994;2023-04-15T04:31:36;100308.91;;;4.75;100.00
48553;BME280;34335;51.566;6.994;2023-04-15T04:34:02;100310.66;;;4.79;100.00
48553;BME280;34335;51.566;6.994;2023-04-15T04:36:27;100309.75;;;4.74;100.00
48553;BME280;34335;51.566;6.994;2023-04-15T04:38:52;100314.91;;;4.77;100.00
48553;BME280;34335;51.566;6.994;2023-04-15T04:41:17;100315.75;;;4.74;100.00
48553;BME280;34335;51.566;6.994;2023-04-15T04:43:43;100317.47;;;4.74;100.00
48553;BME280;34335;51.566;6.994;2023-04-15T04:46:08;100311.41;;;4.72;100.00
48553;BME280;34335;51.566;6.994;2023-04-15T04:48:34;100331.16;;;4.71;100.00
48553;BME280;34335;51.566;6.994;2023-04-15T04:50:59;100338.03;;;4.72;100.00
48553;BME280;34335;51.566;6.994;2023-04-15T04:53:24;100331.09;;;4.68;100.00
48553;BME280;34335;51.566;6.994;2023-04-15T04:55:50;100334.53;;;4.68;100.00
48553;BME280;34335;51.566;6.994;2023-04-15T04:58:16;100343.16;;;4.71;100.00
48553;BME280;34335;51.566;6.994;2023-04-15T05:00:41;100342.25;;;4.68;100.00
48553;BME280;34335;51.566;6.994;2023-04-15T05:03:06;100352.56;;;4.67;100.00
48553;BME280;34335;51.566;6.994;2023-04-15T05:05:32;100348.25;;;4.66;100.00
48553;BME280;34335;51.566;6.994;2023-04-15T05:07:57;100346.47;;;4.63;100.00
48553;BME280;34335;51.566;6.994;2023-04-15T05:10:22;100357.59;;;4.61;100.00
48553;BME280;34335;51.566;6.994;2023-04-15T05:12:47;100355.91;;;4.63;100.00
48553;BME280;34335;51.566;6.994;2023-04-15T05:15:13;100356.78;;;4.63;100.00
48553;BME280;34335;51.566;6.994;2023-04-15T05:17:38;100366.94;;;4.56;100.00
48553;BME280;34335;51.566;6.994;2023-04-15T05:20:04;100363.53;;;4.58;100.00
48553;BME280;34335;51.566;6.994;2023-04-15T05:22:29;100368.69;;;4.58;100.00
48553;BME280;34335;51.566;6.994;2023-04-15T05:24:55;100371.31;;;4.60;100.00
48553;BME280;34335;51.566;6.994;2023-04-15T05:27:20;100370.56;;;4.65;100.00
48553;BME280;34335;51.566;6.994;2023-04-15T05:29:46;100372.25;;;4.63;100.00
48553;BME280;34335;51.566;6.994;2023-04-15T05:32:11;100375.66;;;4.64;100.00
48553;BME280;34335;51.566;6.994;2023-04-15T05:34:37;100374.81;;;4.63;100.00
48553;BME280;34335;51.566;6.994;2023-04-15T05:37:02;100383.22;;;4.55;100.00
48553;BME280;34335;51.566;6.994;2023-04-15T05:39:27;100373.75;;;4.53;100.00
48553;BME280;34335;51.566;6.994;2023-04-15T05:41:53;100380.88;;;4.65;100.00
48553;BME280;34335;51.566;6.994;2023-04-15T05:44:18;100382.53;;;4.63;100.00
48553;BME280;34335;51.566;6.994;2023-04-15T05:46:43;100388.56;;;4.64;100.00
48553;BME280;34335;51.566;6.994;2023-04-15T05:49:08;100391.28;;;4.73;100.00
48553;BME280;34335;51.566;6.994;2023-04-15T05:51:34;100391.50;;;4.84;100.00
48553;BME280;34335;51.566;6.994;2023-04-15T05:54:00;100395.25;;;5.03;100.00
48553;BME280;34335;51.566;6.994;2023-04-15T05:56:25;100396.06;;;4.99;100.00
48553;BME280;34335;51.566;6.994;2023-04-15T05:58:51;100391.59;;;4.90;100.00
48553;BME280;34335;51.566;6.994;2023-04-15T06:01:16;100399.31;;;4.89;100.00
48553;BME280;34335;51.566;6.994;2023-04-15T06:03:42;100399.31;;;4.89;100.00
48553;BME280;34335;51.566;6.994;2023-04-15T06:06:07;100403.56;;;4.88;100.00
48553;BME280;34335;51.566;6.994;2023-04-15T06:08:33;100405.53;;;5.02;100.00
48553;BME280;34335;51.566;6.994;2023-04-15T06:10:59;100409.78;;;4.98;100.00
48553;BME280;34335;51.566;6.994;2023-04-15T06:13:24;100409.81;;;5.01;100.00
48553;BME280;34335;51.566;6.994;2023-04-15T06:15:50;100408.34;;;5.17;100.00
48553;BME280;34335;51.566;6.994;2023-04-15T06:18:15;100415.16;;;5.12;100.00
48553;BME280;34335;51.566;6.994;2023-04-15T06:20:40;100419.41;;;5.10;100.00
48553;BME280;34335;51.566;6.994;2023-04-15T06:23:06;100426.41;;;5.17;100.00
48553;BME280;34335;51.566;6.994;2023-04-15T06:25:31;100423.19;;;5.30;100.00
48553;BME280;34335;51.566;6.994;2023-04-15T06:27:56;100436.19;;;5.37;100.00
48553;BME280;34335;51.566;6.994;2023-04-15T06:30:21;100431.78;;;5.29;100.00
48553;BME280;34335;51.566;6.994;2023-04-15T06:32:47;100437.75;;;5.27;100.00
48553;BME280;34335;51.566;6.994;2023-04-15T06:35:12;100437.97;;;5.41;100.00
48553;BME280;34335;51.566;6.994;2023-04-15T06:37:38;100435.47;;;5.47;100.00
48553;BME280;34335;51.566;6.994;2023-04-15T06:40:04;100446.63;;;5.46;100.00
48553;BME280;34335;51.566;6.994;2023-04-15T06:42:30;100446.00;;;5.59;100.00
48553;BME280;34335;51.566;6.994;2023-04-15T06:44:55;100444.41;;;5.69;100.00
48553;BME280;34335;51.566;6.994;2023-04-15T06:47:20;100448.88;;;5.80;100.00
48553;BME280;34335;51.566;6.994;2023-04-15T06:49:46;100451.63;;;5.93;100.00
48553;BME280;34335;51.566;6.994;2023-04-15T06:52:11;100453.38;;;5.93;100.00
48553;BME280;34335;51.566;6.994;2023-04-15T06:54:37;100445.72;;;5.99;100.00
48553;BME280;34335;51.566;6.994;2023-04-15T06:57:02;100451.91;;;6.09;100.00
48553;BME280;34335;51.566;6.994;2023-04-15T06:59:27;100452.03;;;6.21;100.00
48553;BME280;34335;51.566;6.994;2023-04-15T07:01:53;100451.19;;;6.22;100.00
48553;BME280;34335;51.566;6.994;2023-04-15T07:04:18;100458.19;;;6.30;100.00
48553;BME280;34335;51.566;6.994;2023-04-15T07:06:44;100457.41;;;6.37;100.00
48553;BME280;34335;51.566;6.994;2023-04-15T07:09:10;100461.00;;;6.51;100.00
48553;BME280;34335;51.566;6.994;2023-04-15T07:11:35;100457.50;;;6.45;100.00
48553;BME280;34335;51.566;6.994;2023-04-15T07:14:01;100460.16;;;6.51;100.00
48553;BME280;34335;51.566;6.994;2023-04-15T07:16:26;100467.09;;;6.55;100.00
48553;BME280;34335;51.566;6.994;2023-04-15T07:18:51;100464.66;;;6.66;100.00
48553;BME280;34335;51.566;6.994;2023-04-15T07:21:17;100469.88;;;6.72;100.00
48553;BME280;34335;51.566;6.994;2023-04-15T07:23:42;100472.50;;;6.75;100.00
48553;BME280;34335;51.566;6.994;2023-04-15T07:26:08;100474.28;;;6.81;100.00
48553;BME280;34335;51.566;6.994;2023-04-15T07:28:33;100475.38;;;7.03;100.00
48553;BME280;34335;51.566;6.994;2023-04-15T07:30:58;100482.41;;;7.20;100.00
48553;BME280;34335;51.566;6.994;2023-04-15T07:33:24;100482.38;;;7.15;100.00
48553;BME280;34335;51.566;6.994;2023-04-15T07:35:49;100480.66;;;7.15;100.00
48553;BME280;34335;51.566;6.994;2023-04-15T07:38:15;100482.53;;;7.30;100.00
48553;BME280;34335;51.566;6.994;2023-04-15T07:40:40;100485.19;;;7.40;100.00
48553;BME280;34335;51.566;6.994;2023-04-15T07:43:06;100479.16;;;7.42;100.00
48553;BME280;34335;51.566;6.994;2023-04-15T07:45:31;100486.16;;;7.53;100.00
48553;BME280;34335;51.566;6.994;2023-04-15T07:47:57;100487.91;;;7.54;100.00
48553;BME280;34335;51.566;6.994;2023-04-15T07:50:23;100487.97;;;7.66;100.00
48553;BME280;34335;51.566;6.994;2023-04-15T07:52:49;100488.25;;;8.06;100.00
48553;BME280;34335;51.566;6.994;2023-04-15T07:55:15;100490.03;;;8.17;100.00
48553;BME280;34335;51.566;6.994;2023-04-15T07:57:43;100487.41;;;8.12;100.00
48553;BME280;34335;51.566;6.994;2023-04-15T08:00:09;100487.41;;;8.12;100.00
48553;BME280;34335;51.566;6.994;2023-04-15T08:02:35;100480.63;;;8.37;100.00
48553;BME280;34335;51.566;6.994;2023-04-15T08:05:01;100488.53;;;8.56;100.00
48553;BME280;34335;51.566;6.994;2023-04-15T08:07:28;100497.94;;;8.45;100.00
48553;BME280;34335;51.566;6.994;2023-04-15T08:09:53;100489.41;;;8.60;100.00
48553;BME280;34335;51.566;6.994;2023-04-15T08:12:19;100498.94;;;8.75;100.00
48553;BME280;34335;51.566;6.994;2023-04-15T08:14:44;100508.53;;;8.93;100.00
48553;BME280;34335;51.566;6.994;2023-04-15T08:17:10;100504.22;;;8.96;100.00
48553;BME280;34335;51.566;6.994;2023-04-15T08:19:35;100504.19;;;8.95;100.00
48553;BME280;34335;51.566;6.994;2023-04-15T08:22:00;100507.69;;;9.04;100.00
48553;BME280;34335;51.566;6.994;2023-04-15T08:24:25;100502.44;;;8.83;100.00
48553;BME280;34335;51.566;6.994;2023-04-15T08:26:51;100515.47;;;9.09;100.00
48553;BME280;34335;51.566;6.994;2023-04-15T08:29:17;100509.41;;;9.07;100.00
48553;BME280;34335;51.566;6.994;2023-04-15T08:31:42;100512.91;;;9.17;100.00
48553;BME280;34335;51.566;6.994;2023-04-15T08:34:07;100512.91;;;9.17;100.00
48553;BME280;34335;51.566;6.994;2023-04-15T08:36:33;100512.94;;;9.35;100.00
48553;BME280;34335;51.566;6.994;2023-04-15T08:38:58;100518.97;;;9.48;100.00
48553;BME280;34335;51.566;6.994;2023-04-15T08:41:33;100517.25;;;9.32;100.00
48553;BME280;34335;51.566;6.994;2023-04-15T08:44:03;100519.84;;;9.58;100.00
48553;BME280;34335;51.566;6.994;2023-04-15T08:46:30;100519.81;;;9.35;100.00
48553;BME280;34335;51.566;6.994;2023-04-15T08:48:57;100525.03;;;9.38;100.00
48553;BME280;34335;51.566;6.994;2023-04-15T08:51:23;100520.72;;;9.63;100.00
48553;BME280;34335;51.566;6.994;2023-04-15T08:53:48;100524.16;;;9.98;100.00
48553;BME280;34335;51.566;6.994;2023-04-15T08:56:14;100516.34;;;10.00;100.00
48553;BME280;34335;51.566;6.994;2023-04-15T08:58:42;100525.03;;;10.05;100.00
48553;BME280;34335;51.566;6.994;2023-04-15T09:01:07;100525.00;;;10.08;100.00
48553;BME280;34335;51.566;6.994;2023-04-15T09:03:33;100532.81;;;9.97;100.00
48553;BME280;34335;51.566;6.994;2023-04-15T09:05:58;100532.81;;;10.03;100.00
48553;BME280;34335;51.566;6.994;2023-04-15T09:08:24;100531.94;;;10.12;100.00
48553;BME280;34335;51.566;6.994;2023-04-15T09:10:49;100544.06;;;9.79;100.00
48553;BME280;34335;51.566;6.994;2023-04-15T09:13:15;100550.13;;;9.95;100.00
48553;BME280;34335;51.566;6.994;2023-04-15T09:15:40;100543.16;;;10.26;100.00
48553;BME280;34335;51.566;6.994;2023-04-15T09:18:06;100552.69;;;10.27;100.00
48553;BME280;34335;51.566;6.994;2023-04-15T09:20:39;100554.38;;;10.53;100.00
48553;BME280;34335;51.566;6.994;2023-04-15T09:23:11;100553.44;;;10.71;100.00
48553;BME280;34335;51.566;6.994;2023-04-15T09:25:39;100557.72;;;10.89;100.00
48553;BME280;34335;51.566;6.994;2023-04-15T09:28:06;100562.16;;;10.67;100.00
48553;BME280;34335;51.566;6.994;2023-04-15T09:30:32;100569.97;;;10.59;100.00
48553;BME280;34335;51.566;6.994;2023-04-15T09:32:59;100574.34;;;10.51;100.00
48553;BME280;34335;51.566;6.994;2023-04-15T09:35:26;100570.75;;;10.85;100.00
48553;BME280;34335;51.566;6.994;2023-04-15T09:37:52;100571.66;;;10.67;100.00
48553;BME280;34335;51.566;6.994;2023-04-15T09:40:50;100579.47;;;10.68;100.00
48553;BME280;34335;51.566;6.994;2023-04-15T09:43:16;100571.72;;;10.36;100.00
48553;BME280;34335;51.566;6.994;2023-04-15T09:45:48;100574.34;;;10.34;100.00
48553;BME280;34335;51.566;6.994;2023-04-15T09:48:21;100581.22;;;10.66;100.00
48553;BME280;34335;51.566;6.994;2023-04-15T09:50:47;100574.19;;;10.82;100.00
48553;BME280;34335;51.566;6.994;2023-04-15T09:53:20;100581.09;;;10.96;100.00
48553;BME280;34335;51.566;6.994;2023-04-15T09:55:53;100586.47;;;10.57;100.00
48553;BME280;34335;51.566;6.994;2023-04-15T10:00:50;100594.28;;;10.18;100.00
48553;BME280;34335;51.566;6.994;2023-04-15T10:03:32;100597.66;;;10.74;100.00
48553;BME280;34335;51.566;6.994;2023-04-15T10:06:00;100588.03;;;10.94;100.00
48553;BME280;34335;51.566;6.994;2023-04-15T10:08:27;100609.88;;;10.18;100.00
48553;BME280;34335;51.566;6.994;2023-04-15T10:10:53;100621.13;;;10.20;100.00
48553;BME280;34335;51.566;6.994;2023-04-15T10:13:25;100618.53;;;9.64;100.00
48553;BME280;34335;51.566;6.994;2023-04-15T10:18:28;100615.03;;;10.58;100.00
48553;BME280;34335;51.566;6.994;2023-04-15T10:20:56;100612.47;;;10.52;100.00
48553;BME280;34335;51.566;6.994;2023-04-15T10:23:23;100616.78;;;10.44;100.00
48553;BME280;34335;51.566;6.994;2023-04-15T10:25:51;100622.88;;;10.06;100.00
48553;BME280;34335;51.566;6.994;2023-04-15T10:28:18;100615.88;;;10.71;100.00
48553;BME280;34335;51.566;6.994;2023-04-15T10:30:44;100623.69;;;10.71;100.00
48553;BME280;34335;51.566;6.994;2023-04-15T10:33:12;100625.47;;;9.86;100.00
48553;BME280;34335;51.566;6.994;2023-04-15T10:35:38;100625.47;;;10.34;100.00
48553;BME280;34335;51.566;6.994;2023-04-15T10:38:42;100628.88;;;10.64;100.00
48553;BME280;34335;51.566;6.994;2023-04-15T10:41:12;100624.50;;;10.90;100.00
48553;BME280;34335;51.566;6.994;2023-04-15T10:43:38;100619.25;;;10.94;100.00
48553;BME280;34335;51.566;6.994;2023-04-15T10:46:05;100630.53;;;10.99;100.00
48553;BME280;34335;51.566;6.994;2023-04-15T10:48:30;100634.03;;;10.90;100.00
48553;BME280;34335;51.566;6.994;2023-04-15T10:50:56;100631.38;;;10.99;100.00
48553;BME280;34335;51.566;6.994;2023-04-15T10:53:27;100634.78;;;11.15;100.00
48553;BME280;34335;51.566;6.994;2023-04-15T10:55:53;100628.84;;;10.91;100.00
48553;BME280;34335;51.566;6.994;2023-04-15T10:58:22;100635.66;;;11.17;100.00
48553;BME280;34335;51.566;6.994;2023-04-15T11:00:52;100633.25;;;10.63;100.00
48553;BME280;34335;51.566;6.994;2023-04-15T11:03:36;100638.38;;;10.89;100.00
48553;BME280;34335;51.566;6.994;2023-04-15T11:06:02;100632.97;;;11.36;100.00
48553;BME280;34335;51.566;6.994;2023-04-15T11:08:57;100643.50;;;11.02;100.00
48553;BME280;34335;51.566;6.994;2023-04-15T11:12:03;100651.47;;;10.40;100.00
48553;BME280;34335;51.566;6.994;2023-04-15T11:14:28;100649.72;;;9.92;100.00
48553;BME280;34335;51.566;6.994;2023-04-15T11:16:54;100653.19;;;9.80;100.00
48553;BME280;34335;51.566;6.994;2023-04-15T11:19:19;100652.31;;;9.98;100.00
48553;BME280;34335;51.566;6.994;2023-04-15T11:21:44;100659.25;;;9.98;100.00
48553;BME280;34335;51.566;6.994;2023-04-15T11:24:10;100656.63;;;9.86;100.00
48553;BME280;34335;51.566;6.994;2023-04-15T11:26:35;100660.16;;;10.42;100.00
48553;BME280;34335;51.566;6.994;2023-04-15T11:29:00;100662.72;;;10.23;100.00
48553;BME280;34335;51.566;6.994;2023-04-15T11:31:26;100668.78;;;9.91;100.00
48553;BME280;34335;51.566;6.994;2023-04-15T11:33:57;100671.38;;;10.28;100.00
48553;BME280;34335;51.566;6.994;2023-04-15T11:36:27;100674.84;;;9.98;100.00
48553;BME280;34335;51.566;6.994;2023-04-15T11:39:12;100680.94;;;10.39;100.00
48553;BME280;34335;51.566;6.994;2023-04-15T11:41:37;100685.22;;;10.04;100.00
48553;BME280;34335;51.566;6.994;2023-04-15T11:44:15;100680.88;;;9.80;100.00
48553;BME280;34335;51.566;6.994;2023-04-15T11:46:41;100678.28;;;9.91;100.00
48553;BME280;34335;51.566;6.994;2023-04-15T11:49:06;100687.84;;;10.29;100.00
48553;BME280;34335;51.566;6.994;2023-04-15T11:51:32;100682.59;;;9.65;100.00
48553;BME280;34335;51.566;6.994;2023-04-15T11:53:58;100678.31;;;10.19;100.00
48553;BME280;34335;51.566;6.994;2023-04-15T11:56:24;100688.72;;;10.23;100.00
48553;BME280;34335;51.566;6.994;2023-04-15T11:58:56;100693.00;;;9.81;100.00
48553;BME280;34335;51.566;6.994;2023-04-15T12:01:36;100699.91;;;9.76;100.00
48553;BME280;34335;51.566;6.994;2023-04-15T12:04:14;100711.00;;;9.30;100.00
48553;BME280;34335;51.566;6.994;2023-04-15T12:06:41;100707.59;;;9.43;100.00
48553;BME280;34335;51.566;6.994;2023-04-15T12:09:14;100701.59;;;9.67;100.00
48553;BME280;34335;51.566;6.994;2023-04-15T12:11:50;100711.91;;;9.44;100.00
48553;BME280;34335;51.566;6.994;2023-04-15T12:14:27;100707.56;;;9.34;100.00
48553;BME280;34335;51.566;6.994;2023-04-15T12:16:57;100711.91;;;9.38;100.00
48553;BME280;34335;51.566;6.994;2023-04-15T12:19:37;100718.97;;;9.75;100.00
48553;BME280;34335;51.566;6.994;2023-04-15T12:22:05;100726.59;;;9.34;100.00
48553;BME280;34335;51.566;6.994;2023-04-15T12:24:32;100725.03;;;9.80;100.00
48553;BME280;34335;51.566;6.994;2023-04-15T12:27:04;100726.72;;;9.62;100.00
48553;BME280;34335;51.566;6.994;2023-04-15T12:29:30;100726.78;;;9.92;100.00
48553;BME280;34335;51.566;6.994;2023-04-15T12:32:15;100738.00;;;9.74;100.00
48553;BME280;34335;51.566;6.994;2023-04-15T12:34:43;100732.84;;;9.89;100.00
48553;BME280;34335;51.566;6.994;2023-04-15T12:37:10;100743.16;;;9.61;100.00
48553;BME280;34335;51.566;6.994;2023-04-15T12:39:41;100734.47;;;9.53;100.00
48553;BME280;34335;51.566;6.994;2023-04-15T12:42:08;100747.41;;;9.50;100.00
48553;BME280;34335;51.566;6.994;2023-04-15T12:44:34;100745.69;;;9.49;100.00
48553;BME280;34335;51.566;6.994;2023-04-15T12:47:00;100743.13;;;9.55;100.00
48553;BME280;34335;51.566;6.994;2023-04-15T12:49:26;100751.75;;;9.46;100.00
48553;BME280;34335;51.566;6.994;2023-04-15T12:51:56;100751.78;;;9.54;100.00